createdAt,value
2017-12-04T00:01:24.774Z,16.08
2017-12-04T00:03:53.106Z,15.80
2017-12-04T00:06:21.313Z,16.35
2017-12-04T00:08:49.469Z,15.98
2017-12-04T00:11:17.586Z,13.55
2017-12-04T00:13:45.804Z,15.67
2017-12-04T00:16:14.287Z,15.13
2017-12-04T00:18:42.491Z,15.55
2017-12-04T00:21:10.700Z,16.65
2017-12-04T00:23:39.586Z,12.32
2017-12-04T00:26:07.706Z,15.80
2017-12-04T00:28:35.851Z,13.70
2017-12-04T00:31:04.130Z,15.02
2017-12-04T00:33:33.329Z,12.13
2017-12-04T00:36:02.332Z,14.50
2017-12-04T00:38:30.459Z,13.77
2017-12-04T00:40:58.573Z,13.07
2017-12-04T00:43:26.729Z,13.90
2017-12-04T00:45:55.741Z,12.88
2017-12-04T00:48:24.124Z,15.75
2017-12-04T00:50:52.246Z,13.55
2017-12-04T00:53:20.380Z,12.37
2017-12-04T00:55:48.515Z,16.25
2017-12-04T00:58:17.411Z,12.23
2017-12-04T01:00:45.540Z,12.35
2017-12-04T01:03:13.681Z,11.18
2017-12-04T01:05:41.801Z,12.05
2017-12-04T01:08:09.942Z,12.95
2017-12-04T01:10:38.076Z,14.57
2017-12-04T01:13:06.267Z,14.35
2017-12-04T01:15:34.377Z,11.90
2017-12-04T01:18:02.511Z,10.95
2017-12-04T01:20:30.643Z,13.07
2017-12-04T01:22:59.552Z,11.85
2017-12-04T01:25:27.678Z,10.63
2017-12-04T01:27:55.917Z,10.82
2017-12-04T01:30:24.787Z,13.20
2017-12-04T01:32:52.940Z,15.00
2017-12-04T01:35:21.043Z,11.48
2017-12-04T01:37:49.224Z,12.27
2017-12-04T01:40:17.362Z,14.50
2017-12-04T01:42:45.464Z,13.52
2017-12-04T01:45:13.586Z,11.60
2017-12-04T01:47:41.725Z,10.25
2017-12-04T01:50:09.869Z,10.43
2017-12-04T01:52:38.761Z,12.60
2017-12-04T01:55:06.895Z,12.85
2017-12-04T01:57:35.258Z,14.45
2017-12-04T02:00:03.389Z,13.10
2017-12-04T02:02:33.679Z,11.18
2017-12-04T02:05:02.659Z,14.48
2017-12-04T02:07:31.010Z,12.50
2017-12-04T02:09:59.207Z,12.40
2017-12-04T02:12:27.449Z,10.10
2017-12-04T02:14:55.751Z,10.60
2017-12-04T02:17:23.910Z,11.48
2017-12-04T02:19:52.059Z,13.65
2017-12-04T02:22:20.180Z,14.50
2017-12-04T02:24:48.343Z,13.50
2017-12-04T02:27:16.642Z,15.80
2017-12-04T02:29:44.833Z,13.80
2017-12-04T02:32:13.114Z,11.48
2017-12-04T02:34:41.271Z,11.18
2017-12-04T02:37:10.151Z,14.20
2017-12-04T02:39:38.348Z,13.15
2017-12-04T02:42:06.507Z,12.95
2017-12-04T02:44:34.674Z,12.20
2017-12-04T02:47:03.584Z,13.20
2017-12-04T02:49:32.527Z,12.23
2017-12-04T02:52:00.659Z,15.70
2017-12-04T02:54:28.908Z,16.50
2017-12-04T02:56:57.118Z,15.05
2017-12-04T02:59:25.295Z,16.25
2017-12-04T03:01:53.545Z,14.32
2017-12-04T03:04:21.756Z,18.33
2017-12-04T03:06:49.872Z,16.77
2017-12-04T03:09:18.110Z,17.27
2017-12-04T03:11:46.407Z,17.50
2017-12-04T03:14:14.624Z,15.07
2017-12-04T03:16:42.914Z,17.87
2017-12-04T03:19:11.067Z,17.17
2017-12-04T03:21:39.935Z,15.10
2017-12-04T03:24:08.875Z,17.73
2017-12-04T03:26:37.235Z,17.52
2017-12-04T03:29:05.518Z,15.60
2017-12-04T03:31:33.660Z,16.08
2017-12-04T03:34:01.819Z,18.05
2017-12-04T03:36:30.756Z,17.33
2017-12-04T03:38:58.895Z,16.55
2017-12-04T03:41:27.252Z,19.33
2017-12-04T03:43:55.546Z,19.30
2017-12-04T03:46:23.747Z,17.42
2017-12-04T03:48:52.620Z,17.62
2017-12-04T03:51:20.770Z,15.00
2017-12-04T03:53:49.779Z,17.23
2017-12-04T03:56:17.918Z,17.27
2017-12-04T03:58:46.056Z,17.33
2017-12-04T04:01:14.262Z,15.73
2017-12-04T04:03:42.377Z,18.62
2017-12-04T04:06:10.522Z,17.75
2017-12-04T04:08:39.405Z,18.58
2017-12-04T04:11:07.543Z,16.98
2017-12-04T04:13:35.660Z,19.40
2017-12-04T04:16:04.560Z,15.35
2017-12-04T04:18:33.459Z,19.10
2017-12-04T04:21:02.355Z,19.90
2017-12-04T04:23:30.482Z,19.48
2017-12-04T04:25:58.625Z,19.83
2017-12-04T04:28:26.759Z,18.47
2017-12-04T04:30:54.947Z,17.08
2017-12-04T04:33:23.074Z,18.73
2017-12-04T04:35:51.208Z,20.98
2017-12-04T04:38:19.341Z,20.37
2017-12-04T04:40:48.238Z,20.27
2017-12-04T04:43:17.173Z,18.00
2017-12-04T04:45:45.306Z,21.67
2017-12-04T04:48:13.504Z,17.65
2017-12-04T04:50:41.630Z,16.37
2017-12-04T04:53:09.754Z,19.10
2017-12-04T04:55:37.886Z,21.25
2017-12-04T04:58:06.246Z,17.98
2017-12-04T05:00:34.396Z,21.90
2017-12-04T05:03:02.525Z,20.30
2017-12-04T05:05:30.658Z,18.27
2017-12-04T05:07:58.787Z,17.67
2017-12-04T05:10:26.917Z,21.35
2017-12-04T05:12:55.806Z,20.92
2017-12-04T05:15:24.727Z,18.83
2017-12-04T05:17:52.858Z,24.08
2017-12-04T05:20:20.996Z,20.45
2017-12-04T05:22:49.118Z,23.08
2017-12-04T05:25:18.019Z,20.15
2017-12-04T05:27:47.024Z,18.27
2017-12-04T05:30:15.156Z,18.30
2017-12-04T05:32:43.281Z,21.40
2017-12-04T05:35:11.410Z,17.25
2017-12-04T05:37:40.310Z,14.25
2017-12-04T05:40:09.226Z,19.92
2017-12-04T05:42:38.100Z,18.02
2017-12-04T05:45:06.259Z,20.33
2017-12-04T05:47:35.187Z,21.02
2017-12-04T05:50:03.356Z,20.10
2017-12-04T05:52:31.519Z,22.92
2017-12-04T05:54:59.716Z,17.30
2017-12-04T05:57:27.942Z,16.58
2017-12-04T05:59:56.203Z,19.83
2017-12-04T06:02:24.382Z,23.25
2017-12-04T06:04:53.369Z,23.62
2017-12-04T06:07:21.512Z,18.45
2017-12-04T06:09:49.648Z,22.55
2017-12-04T06:12:17.806Z,20.55
2017-12-04T06:14:46.731Z,21.30
2017-12-04T06:17:14.896Z,18.45
2017-12-04T06:19:43.838Z,22.27
2017-12-04T06:22:12.057Z,17.05
2017-12-04T06:24:40.210Z,20.73
2017-12-04T06:27:09.367Z,18.70
2017-12-04T06:29:37.539Z,20.47
2017-12-04T06:32:05.727Z,25.02
2017-12-04T06:34:33.960Z,19.73
2017-12-04T06:37:02.086Z,21.55
2017-12-04T06:39:30.234Z,18.12
2017-12-04T06:41:58.632Z,16.70
2017-12-04T06:44:26.812Z,18.70
2017-12-04T06:46:55.133Z,16.95
2017-12-04T06:49:23.405Z,17.40
2017-12-04T06:51:51.642Z,15.40
2017-12-04T06:54:20.615Z,18.62
2017-12-04T06:56:48.812Z,16.33
2017-12-04T06:59:17.871Z,17.63
2017-12-04T07:01:46.807Z,18.33
2017-12-04T07:04:15.722Z,16.17
2017-12-04T07:06:43.858Z,15.05
2017-12-04T07:09:12.109Z,14.68
2017-12-04T07:11:40.330Z,16.42
2017-12-04T07:14:09.229Z,14.05
2017-12-04T07:16:37.504Z,12.95
2017-12-04T07:19:05.682Z,12.10
2017-12-04T07:21:33.807Z,10.68
2017-12-04T07:24:01.984Z,18.65
2017-12-04T07:26:30.218Z,13.25
2017-12-04T07:28:58.741Z,17.57
2017-12-04T07:31:27.025Z,11.07
2017-12-04T07:33:55.300Z,15.85
2017-12-04T07:36:24.299Z,13.65
2017-12-04T07:38:53.311Z,12.20
2017-12-04T07:41:21.624Z,14.48
2017-12-04T07:43:50.039Z,10.33
2017-12-04T07:46:19.146Z,17.87
2017-12-04T07:48:48.088Z,15.77
2017-12-04T07:51:17.089Z,12.77
2017-12-04T07:53:45.428Z,14.73
2017-12-04T07:56:13.581Z,14.10
2017-12-04T07:58:42.484Z,16.17
2017-12-04T08:01:10.619Z,19.25
2017-12-04T08:03:38.773Z,13.23
2017-12-04T08:06:06.919Z,16.45
2017-12-04T08:08:35.079Z,21.33
2017-12-04T08:11:03.231Z,14.63
2017-12-04T08:13:32.210Z,13.37
2017-12-04T08:16:01.103Z,15.52
2017-12-04T08:18:30.033Z,23.35
2017-12-04T08:20:58.160Z,16.10
2017-12-04T08:23:26.307Z,15.82
2017-12-04T08:25:54.426Z,14.65
2017-12-04T08:28:23.341Z,12.10
2017-12-04T08:30:51.512Z,12.80
2017-12-04T08:33:19.651Z,13.18
2017-12-04T08:35:48.541Z,13.90
2017-12-04T08:38:17.470Z,14.23
2017-12-04T08:40:45.592Z,11.85
2017-12-04T08:43:13.754Z,14.43
2017-12-04T08:47:59.729Z,12.32
2017-12-04T08:50:27.873Z,14.07
2017-12-04T08:52:56.013Z,10.88
2017-12-04T08:55:24.139Z,12.05
2017-12-04T08:57:52.285Z,13.95
2017-12-04T09:00:20.423Z,11.90
2017-12-04T09:02:48.551Z,9.82
2017-12-04T09:05:16.721Z,13.07
2017-12-04T09:07:45.101Z,11.27
2017-12-04T09:10:13.975Z,8.77
2017-12-04T09:12:42.110Z,13.35
2017-12-04T09:15:10.250Z,11.70
2017-12-04T09:17:38.360Z,9.63
2017-12-04T09:20:06.499Z,9.15
2017-12-04T09:22:34.626Z,9.07
2017-12-04T09:25:03.529Z,9.88
2017-12-04T09:27:31.674Z,9.68
2017-12-04T09:30:00.610Z,10.07
2017-12-04T09:32:28.737Z,11.60
2017-12-04T09:34:56.861Z,8.50
2017-12-04T09:37:25.027Z,10.90
2017-12-04T09:39:54.430Z,8.00
2017-12-04T09:42:22.696Z,7.53
2017-12-04T09:44:51.589Z,8.93
2017-12-04T09:47:19.709Z,10.63
2017-12-04T09:49:47.852Z,9.88
2017-12-04T09:52:15.992Z,7.60
2017-12-04T09:54:44.116Z,8.95
2017-12-04T09:57:12.240Z,8.15
2017-12-04T09:59:40.375Z,10.93
2017-12-04T10:02:08.492Z,10.15
2017-12-04T10:04:36.668Z,8.98
2017-12-04T10:07:04.744Z,10.70
2017-12-04T10:09:32.871Z,10.80
2017-12-04T10:12:01.018Z,11.12
2017-12-04T10:14:29.165Z,11.48
2017-12-04T10:16:57.288Z,9.15
2017-12-04T10:19:25.422Z,15.55
2017-12-04T10:21:53.548Z,11.05
2017-12-04T10:24:22.430Z,8.82
2017-12-04T10:26:51.402Z,9.57
2017-12-04T10:29:20.291Z,12.33
2017-12-04T10:31:48.420Z,9.40
2017-12-04T10:34:16.559Z,9.70
2017-12-04T10:36:44.673Z,10.82
2017-12-04T10:39:12.787Z,10.93
2017-12-04T10:41:40.892Z,8.98
2017-12-04T10:44:09.779Z,9.90
2017-12-04T10:46:37.901Z,8.55
2017-12-04T10:49:06.034Z,7.12
2017-12-04T10:51:34.161Z,11.43
2017-12-04T10:54:02.307Z,11.43
2017-12-04T10:56:30.420Z,10.40
2017-12-04T10:58:59.342Z,13.30
2017-12-04T11:01:27.450Z,11.27
2017-12-04T11:03:55.604Z,9.05
2017-12-04T11:06:23.737Z,10.32
2017-12-04T11:08:52.616Z,9.18
2017-12-04T11:11:21.526Z,7.95
2017-12-04T11:13:49.688Z,11.03
2017-12-04T11:16:18.616Z,14.20
2017-12-04T11:18:47.536Z,8.85
2017-12-04T11:21:15.653Z,9.20
2017-12-04T11:23:43.773Z,7.93
2017-12-04T11:26:11.897Z,8.80
2017-12-04T11:28:40.024Z,7.43
2017-12-04T11:31:09.677Z,7.03
2017-12-04T11:33:38.550Z,7.62
2017-12-04T11:36:07.454Z,8.20
2017-12-04T11:38:35.575Z,10.32
2017-12-04T11:41:04.498Z,10.15
2017-12-04T11:43:32.626Z,7.33
2017-12-04T11:46:00.803Z,8.50
2017-12-04T11:48:28.931Z,8.60
2017-12-04T11:50:57.824Z,6.85
2017-12-04T11:53:26.688Z,6.20
2017-12-04T11:55:54.838Z,6.80
2017-12-04T11:58:22.960Z,6.78
2017-12-04T12:00:51.855Z,6.57
2017-12-04T12:03:20.004Z,6.22
2017-12-04T12:05:48.157Z,5.87
2017-12-04T12:08:16.283Z,7.95
2017-12-04T12:10:45.159Z,6.28
2017-12-04T12:13:14.038Z,6.70
2017-12-04T12:15:42.952Z,8.75
2017-12-04T12:18:11.061Z,6.47
2017-12-04T12:20:39.295Z,6.75
2017-12-04T12:23:07.363Z,5.82
2017-12-04T12:25:35.493Z,6.43
2017-12-04T12:28:04.011Z,6.05
2017-12-04T12:30:32.915Z,7.15
2017-12-04T12:33:01.034Z,6.28
2017-12-04T12:35:29.197Z,6.20
2017-12-04T12:37:57.301Z,10.07
2017-12-04T12:40:26.204Z,7.72
2017-12-04T12:42:54.366Z,8.55
2017-12-04T12:45:22.478Z,8.30
2017-12-04T12:47:50.596Z,10.27
2017-12-04T12:50:18.721Z,5.93
2017-12-04T12:52:46.825Z,6.65
2017-12-04T12:55:14.975Z,6.80
2017-12-04T12:57:43.091Z,8.25
2017-12-04T13:00:11.215Z,7.43
2017-12-04T13:02:39.472Z,7.55
2017-12-04T13:05:07.598Z,8.07
2017-12-04T13:07:35.731Z,7.60
2017-12-04T13:10:03.849Z,7.65
2017-12-04T13:12:32.771Z,6.43
2017-12-04T13:15:00.895Z,10.10
2017-12-04T13:17:29.036Z,10.40
2017-12-04T13:19:57.160Z,9.45
2017-12-04T13:22:25.317Z,9.40
2017-12-04T13:24:54.941Z,10.07
2017-12-04T13:27:23.052Z,11.68
2017-12-04T13:29:51.182Z,9.73
2017-12-04T13:32:31.223Z,11.40
2017-12-04T13:35:11.263Z,8.48
2017-12-04T13:37:39.406Z,10.02
2017-12-04T13:40:07.535Z,10.40
2017-12-04T13:42:36.443Z,12.40
2017-12-04T13:45:04.563Z,12.80
2017-12-04T13:47:32.735Z,10.15
2017-12-04T13:50:00.869Z,15.63
2017-12-04T13:52:29.058Z,12.45
2017-12-04T13:54:57.154Z,12.68
2017-12-04T13:57:25.305Z,12.68
2017-12-04T13:59:53.422Z,11.30
2017-12-04T14:02:22.318Z,10.27
2017-12-04T14:04:51.202Z,12.35
2017-12-04T14:07:20.098Z,11.52
2017-12-04T14:09:48.988Z,13.00
2017-12-04T14:12:17.157Z,13.32
2017-12-04T14:14:45.287Z,17.08
2017-12-04T14:17:13.491Z,15.98
2017-12-04T14:19:41.673Z,16.42
2017-12-04T14:22:09.767Z,15.80
2017-12-04T14:24:37.955Z,14.52
2017-12-04T14:27:06.095Z,13.38
2017-12-04T14:29:34.992Z,14.25
2017-12-04T14:32:03.894Z,13.50
2017-12-04T14:34:32.059Z,11.40
2017-12-04T14:37:00.978Z,14.80
2017-12-04T14:39:29.087Z,13.62
2017-12-04T14:41:57.229Z,15.65
2017-12-04T14:44:25.370Z,11.75
2017-12-04T14:46:54.364Z,15.20
2017-12-04T14:49:22.492Z,16.35
2017-12-04T14:51:50.609Z,13.30
2017-12-04T14:54:18.751Z,14.68
2017-12-04T14:56:46.858Z,13.93
2017-12-04T14:59:14.988Z,11.90
2017-12-04T15:01:43.134Z,12.27
2017-12-04T15:04:11.247Z,11.80
2017-12-04T15:06:40.142Z,11.50
2017-12-04T15:09:09.058Z,14.55
2017-12-04T15:11:37.185Z,14.02
2017-12-04T15:14:05.327Z,12.45
2017-12-04T15:16:33.462Z,13.88
2017-12-04T15:19:02.353Z,14.63
2017-12-04T15:21:31.246Z,12.75
2017-12-04T15:23:59.395Z,12.70
2017-12-04T15:26:27.540Z,10.20
2017-12-04T15:28:55.663Z,12.43
2017-12-04T15:31:23.792Z,14.63
2017-12-04T15:33:51.936Z,11.93
2017-12-04T15:36:20.074Z,11.90
2017-12-04T15:38:48.975Z,12.02
2017-12-04T15:41:17.099Z,11.23
2017-12-04T15:43:45.249Z,11.52
2017-12-04T15:46:13.404Z,11.95
2017-12-04T15:48:41.524Z,15.40
2017-12-04T15:51:09.652Z,12.80
2017-12-04T15:53:37.798Z,12.20
2017-12-04T15:56:06.681Z,12.93
2017-12-04T15:58:35.584Z,12.30
2017-12-04T16:01:04.472Z,11.43
2017-12-04T16:03:33.395Z,14.00
2017-12-04T16:06:01.572Z,12.82
2017-12-04T16:08:29.701Z,12.23
2017-12-04T16:10:58.594Z,13.75
2017-12-04T16:13:27.515Z,13.97
2017-12-04T16:15:55.641Z,16.62
2017-12-04T16:20:53.537Z,12.48
2017-12-04T16:23:22.425Z,16.50
2017-12-04T16:25:51.331Z,13.15
2017-12-04T16:28:19.458Z,15.82
2017-12-04T16:30:47.795Z,10.93
2017-12-04T16:33:15.959Z,16.98
2017-12-04T16:35:44.112Z,12.32
2017-12-04T16:38:13.010Z,18.95
2017-12-04T16:40:41.132Z,16.08
2017-12-04T16:43:09.281Z,21.37
2017-12-04T16:45:37.389Z,15.70
2017-12-04T16:48:05.522Z,13.18
2017-12-04T16:50:33.652Z,15.18
2017-12-04T16:53:02.591Z,14.15
2017-12-04T16:55:30.722Z,12.75
2017-12-04T16:57:59.639Z,17.10
2017-12-04T17:00:27.832Z,14.37
2017-12-04T17:02:56.066Z,12.02
2017-12-04T17:05:25.001Z,13.48
2017-12-04T17:07:53.113Z,14.15
2017-12-04T17:10:21.262Z,13.18
2017-12-04T17:12:49.383Z,14.15
2017-12-04T17:15:17.602Z,12.48
2017-12-04T17:17:45.694Z,11.90
2017-12-04T17:20:13.840Z,14.23
2017-12-04T17:22:41.989Z,15.18
2017-12-04T17:25:10.125Z,11.32
2017-12-04T17:27:38.253Z,10.15
2017-12-04T17:30:06.388Z,12.18
2017-12-04T17:32:35.315Z,12.35
2017-12-04T17:35:03.463Z,14.85
2017-12-04T17:37:31.593Z,16.35
2017-12-04T17:39:59.735Z,14.70
2017-12-04T17:42:27.845Z,12.43
2017-12-04T17:44:55.986Z,11.43
2017-12-04T17:47:24.117Z,14.65
2017-12-04T17:49:52.253Z,15.05
2017-12-04T17:52:20.440Z,15.90
2017-12-04T17:54:48.557Z,15.93
2017-12-04T17:57:16.722Z,16.30
2017-12-04T17:59:44.852Z,12.10
2017-12-04T18:02:13.031Z,14.20
2017-12-04T18:04:41.113Z,16.23
2017-12-04T18:07:09.996Z,14.65
2017-12-04T18:09:38.931Z,17.75
2017-12-04T18:12:07.068Z,19.35
2017-12-04T18:14:35.204Z,25.17
2017-12-04T18:17:03.443Z,12.15
2017-12-04T18:19:32.622Z,12.90
2017-12-04T18:22:00.752Z,15.00
2017-12-04T18:24:28.942Z,13.55
2017-12-04T18:26:57.856Z,13.70
2017-12-04T18:29:25.990Z,13.00
2017-12-04T18:31:54.142Z,12.32
2017-12-04T18:34:22.249Z,14.68
2017-12-04T18:36:51.178Z,12.85
2017-12-04T18:39:19.308Z,13.70
2017-12-04T18:41:47.463Z,14.60
2017-12-04T18:44:15.639Z,12.73
2017-12-04T18:46:43.773Z,17.30
2017-12-04T18:49:11.945Z,15.75
2017-12-04T18:51:40.095Z,15.45
2017-12-04T18:54:08.275Z,13.13
2017-12-04T18:56:36.406Z,18.37
2017-12-04T18:59:04.570Z,14.50
2017-12-04T19:01:32.686Z,13.32
2017-12-04T19:04:01.942Z,12.82
2017-12-04T19:06:30.066Z,14.87
2017-12-04T19:08:58.231Z,15.00
2017-12-04T19:11:27.110Z,16.90
2017-12-04T19:13:56.006Z,13.70
2017-12-04T19:16:24.237Z,13.23
2017-12-04T19:18:52.371Z,22.70
2017-12-04T19:21:20.648Z,13.40
2017-12-04T19:23:49.133Z,15.27
2017-12-04T19:26:17.298Z,12.85
2017-12-04T19:28:45.446Z,13.13
2017-12-04T19:31:14.406Z,13.55
2017-12-04T19:33:42.594Z,16.10
2017-12-04T19:36:11.485Z,15.73
2017-12-04T19:38:39.666Z,16.42
2017-12-04T19:41:08.594Z,16.70
2017-12-04T19:43:36.772Z,16.30
2017-12-04T19:46:04.929Z,14.23
2017-12-04T19:48:33.847Z,18.00
2017-12-04T19:51:02.022Z,18.92
2017-12-04T19:53:30.408Z,12.00
2017-12-04T19:55:58.634Z,17.10
2017-12-04T19:58:26.904Z,15.60
2017-12-04T20:00:56.763Z,16.83
2017-12-04T20:03:24.936Z,17.77
2017-12-04T20:05:53.253Z,12.30
2017-12-04T20:08:22.218Z,11.82
2017-12-04T20:10:50.442Z,16.30
2017-12-04T20:13:18.734Z,16.25
2017-12-04T20:15:47.116Z,16.45
2017-12-04T20:18:15.561Z,16.73
2017-12-04T20:20:43.866Z,16.25
2017-12-04T20:23:12.089Z,19.58
2017-12-04T20:25:41.725Z,18.52
2017-12-04T20:28:09.873Z,17.35
2017-12-04T20:30:38.128Z,17.58
2017-12-04T20:33:06.312Z,17.45
2017-12-04T20:35:34.539Z,14.48
2017-12-04T20:38:02.785Z,18.42
2017-12-04T20:40:30.950Z,14.40
2017-12-04T20:42:59.046Z,14.07
2017-12-04T20:45:27.234Z,12.77
2017-12-04T20:47:55.392Z,14.20
2017-12-04T20:50:24.295Z,16.33
2017-12-04T20:52:52.435Z,17.00
2017-12-04T20:55:21.347Z,12.27
2017-12-04T20:57:50.268Z,15.88
2017-12-04T21:00:18.440Z,12.83
2017-12-04T21:02:46.590Z,16.23
2017-12-04T21:05:14.923Z,16.05
2017-12-04T21:07:55.187Z,13.32
2017-12-04T21:10:36.378Z,10.43
2017-12-04T21:13:16.370Z,15.68
2017-12-04T21:15:56.847Z,12.85
2017-12-04T21:18:25.819Z,12.60
2017-12-04T21:20:54.298Z,12.27
2017-12-04T21:23:23.254Z,14.75
2017-12-04T21:25:52.098Z,14.70
2017-12-04T21:28:20.943Z,16.73
2017-12-04T21:30:49.613Z,16.45
2017-12-04T21:33:17.836Z,14.20
2017-12-04T21:35:45.991Z,12.80
2017-12-04T21:38:14.853Z,17.87
2017-12-04T21:40:43.268Z,14.10
2017-12-04T21:43:11.960Z,15.48
2017-12-04T21:45:42.355Z,16.73
2017-12-04T21:48:10.604Z,16.00
2017-12-04T21:50:39.320Z,14.87
2017-12-04T21:53:09.357Z,11.02
2017-12-04T21:55:37.665Z,16.02
2017-12-04T21:58:06.498Z,16.37
2017-12-04T22:00:35.538Z,13.00
2017-12-04T22:03:03.723Z,14.75
2017-12-04T22:05:31.845Z,14.30
2017-12-04T22:07:59.987Z,13.62
2017-12-04T22:10:29.175Z,15.00
2017-12-04T22:12:57.501Z,13.98
2017-12-04T22:15:25.734Z,16.30
2017-12-04T22:17:54.215Z,15.82
2017-12-04T22:20:22.398Z,13.20
2017-12-04T22:22:50.805Z,19.10
2017-12-04T22:25:19.220Z,12.77
2017-12-04T22:27:48.459Z,27.70
2017-12-04T22:30:16.597Z,19.23
2017-12-04T22:32:45.724Z,20.27
2017-12-04T22:35:14.073Z,18.30
2017-12-04T22:37:42.268Z,20.45
2017-12-04T22:40:11.917Z,20.25
2017-12-04T22:42:40.096Z,22.80
2017-12-04T22:45:09.947Z,17.43
2017-12-04T22:47:38.195Z,15.77
2017-12-04T22:50:06.441Z,16.70
2017-12-04T22:52:35.493Z,15.15
2017-12-04T22:55:04.476Z,15.48
2017-12-04T22:57:32.632Z,13.25
2017-12-04T23:00:00.898Z,19.67
2017-12-04T23:02:29.232Z,11.10
2017-12-04T23:04:57.469Z,18.42
2017-12-04T23:07:25.621Z,12.40
2017-12-04T23:09:53.762Z,13.27
2017-12-04T23:12:21.886Z,15.20
2017-12-04T23:14:50.843Z,18.57
2017-12-04T23:17:19.784Z,19.00
2017-12-04T23:19:49.124Z,15.43
2017-12-04T23:22:17.418Z,16.80
2017-12-04T23:24:46.485Z,13.65
2017-12-04T23:27:14.680Z,14.43
2017-12-04T23:29:42.801Z,15.23
2017-12-04T23:32:11.718Z,13.90
2017-12-04T23:34:39.830Z,12.80
2017-12-04T23:37:07.988Z,18.58
2017-12-04T23:39:36.107Z,16.60
2017-12-04T23:42:04.992Z,13.73
2017-12-04T23:44:33.912Z,14.03
2017-12-04T23:47:02.805Z,15.40
2017-12-04T23:49:30.934Z,16.25
2017-12-04T23:51:59.097Z,15.63
2017-12-04T23:54:27.240Z,22.02
2017-12-04T23:56:55.441Z,16.00
2017-12-04T23:59:23.576Z,20.58
